Time;durP1;ratioP1;P1;durP2;ratioP2;P2;SDS_P1;SDS_P2;PMS_P1;PMS_P2;Temp;Humidity;BMP_temperature;BMP_pressure;BME280_temperature;BME280_humidity;BME280_pressure;Samples;Min_cycle;Max_cycle;Signal;HPM_P1;HPM_P2
2022/09/19 00:01:13;;;;;;;3.22;1.70;;;11.40;99.90;;;;;;5094935;28;20105;-77
2022/09/19 00:03:41;;;;;;;2.50;1.30;;;11.30;99.90;;;;;;5094464;28;20012;-77
2022/09/19 00:06:09;;;;;;;3.30;1.40;;;11.20;99.90;;;;;;5094716;28;20123;-77
2022/09/19 00:08:39;;;;;;;1.88;1.10;;;11.20;99.90;;;;;;5094666;28;20484;-77
2022/09/19 00:11:07;;;;;;;4.72;1.40;;;11.20;99.90;;;;;;5074325;28;20074;-77
2022/09/19 00:13:35;;;;;;;2.50;1.52;;;11.30;99.90;;;;;;5074592;28;20051;-77
2022/09/19 00:16:00;;;;;;;2.45;1.30;;;11.20;99.90;;;;;;5074200;28;20028;-77
2022/09/19 00:18:27;;;;;;;2.95;1.50;;;11.00;99.90;;;;;;5074219;28;20028;-77
2022/09/19 00:20:54;;;;;;;4.68;1.25;;;11.10;99.90;;;;;;5073831;28;20507;-77
2022/09/19 00:26:11;;;;;;;4.38;1.60;;;11.10;99.90;;;;;;5074115;28;20039;-77
2022/09/19 00:28:38;;;;;;;3.72;1.30;;;11.20;99.90;;;;;;5074036;28;20028;-77
2022/09/19 00:31:04;;;;;;;2.55;1.55;;;11.00;99.90;;;;;;5087680;28;20073;-77
2022/09/19 00:33:31;;;;;;;2.45;1.30;;;10.80;99.90;;;;;;5094035;28;20044;-77
2022/09/19 00:35:59;;;;;;;3.47;1.33;;;10.90;99.90;;;;;;5094519;28;20032;-77
2022/09/19 00:38:27;;;;;;;2.58;1.30;;;11.10;99.90;;;;;;5093863;28;20075;-77
2022/09/19 00:40:54;;;;;;;3.25;1.20;;;10.90;99.90;;;;;;5092383;28;20113;-77
2022/09/19 00:43:22;;;;;;;1.90;1.30;;;10.70;99.90;;;;;;5094061;28;20085;-77
2022/09/19 00:45:48;;;;;;;2.30;1.00;;;10.90;99.90;;;;;;5093741;28;20059;-77
2022/09/19 00:48:16;;;;;;;3.17;1.55;;;10.70;99.90;;;;;;5093900;28;20104;-77
2022/09/19 00:50:45;;;;;;;2.58;1.50;;;10.60;99.90;;;;;;5093659;28;20469;-76
2022/09/19 00:53:20;;;;;;;3.13;1.58;;;10.60;99.90;;;;;;5093850;28;20039;-77
2022/09/19 00:55:47;;;;;;;3.10;1.35;;;10.60;99.90;;;;;;5092130;28;20042;-77
2022/09/19 00:58:21;;;;;;;2.45;1.35;;;10.70;99.90;;;;;;5093461;28;20030;-77
2022/09/19 01:00:47;;;;;;;4.28;1.48;;;10.70;99.90;;;;;;5093234;28;20107;-77
2022/09/19 01:03:13;;;;;;;2.83;1.50;;;10.60;99.90;;;;;;5093865;28;20067;-77
2022/09/19 01:05:50;;;;;;;2.00;1.50;;;10.60;99.90;;;;;;5093407;28;20020;-77
2022/09/19 01:08:42;;;;;;;2.85;1.17;;;10.90;99.90;;;;;;5093621;28;20028;-77
2022/09/19 01:11:30;;;;;;;3.33;1.33;;;10.50;99.90;;;;;;5093180;28;20028;-77
2022/09/19 01:14:39;;;;;;;2.03;1.20;;;10.50;99.90;;;;;;5093080;28;20028;-78
2022/09/19 01:17:31;;;;;;;3.45;1.30;;;10.60;99.90;;;;;;5093003;28;20024;-77
2022/09/19 01:19:59;;;;;;;4.03;1.42;;;10.40;99.90;;;;;;5093043;28;20099;-77
2022/09/19 01:23:02;;;;;;;1.45;1.35;;;10.30;99.90;;;;;;5093482;28;20029;-77
2022/09/19 01:26:00;;;;;;;4.63;1.60;;;10.30;99.90;;;;;;5093065;28;20031;-77
2022/09/19 01:28:44;;;;;;;3.60;1.23;;;10.20;99.90;;;;;;5092013;28;20427;-77
2022/09/19 01:31:22;;;;;;;3.58;1.73;;;10.30;99.90;;;;;;5092475;28;20035;-76
2022/09/19 01:34:07;;;;;;;1.48;1.30;;;10.20;99.90;;;;;;5092707;28;20034;-77
2022/09/19 01:36:39;;;;;;;3.55;1.30;;;10.20;99.90;;;;;;5093144;28;20035;-77
2022/09/19 01:39:08;;;;;;;3.30;1.60;;;10.10;99.90;;;;;;5092734;28;20069;-77
2022/09/19 01:41:34;;;;;;;4.18;1.70;;;10.10;99.90;;;;;;5092365;28;20131;-77
2022/09/19 01:44:08;;;;;;;3.75;1.40;;;10.30;99.90;;;;;;5092748;28;20385;-77
2022/09/19 01:46:38;;;;;;;2.60;1.40;;;10.00;99.90;;;;;;5092496;28;20028;-77
2022/09/19 01:49:13;;;;;;;3.28;1.38;;;9.90;99.90;;;;;;5092782;28;20609;-76
2022/09/19 01:51:53;;;;;;;2.35;1.38;;;10.20;99.90;;;;;;5074017;28;20373;-77
2022/09/19 01:55:08;;;;;;;2.63;1.38;;;10.10;99.90;;;;;;5092590;28;20024;-77
2022/09/19 01:58:00;;;;;;;3.05;1.45;;;10.20;99.90;;;;;;5088970;28;20078;-77
2022/09/19 02:00:27;;;;;;;2.72;1.52;;;10.00;99.90;;;;;;5092348;28;20032;-77
2022/09/19 02:03:05;;;;;;;3.85;1.50;;;10.00;99.90;;;;;;5092589;28;20028;-77
2022/09/19 02:05:32;;;;;;;3.90;1.40;;;9.90;99.90;;;;;;5092125;28;20480;-77
2022/09/19 02:08:36;;;;;;;3.03;1.30;;;10.10;99.90;;;;;;5092670;28;20040;-77
2022/09/19 02:11:11;;;;;;;3.80;1.40;;;9.80;99.90;;;;;;5070044;28;20047;-77
2022/09/19 02:13:44;;;;;;;3.50;1.63;;;9.90;99.90;;;;;;5071981;28;20024;-77
2022/09/19 02:16:18;;;;;;;2.80;1.40;;;9.90;99.90;;;;;;5072500;28;20028;-76
2022/09/19 02:19:17;;;;;;;4.35;1.70;;;9.80;99.90;;;;;;5072061;28;20028;-77
2022/09/19 02:21:50;;;;;;;2.88;1.40;;;9.80;99.90;;;;;;5071844;28;20488;-77
2022/09/19 02:24:21;;;;;;;1.80;1.35;;;9.70;99.90;;;;;;5072121;28;20020;-77
2022/09/19 02:26:51;;;;;;;2.65;1.52;;;9.70;99.90;;;;;;5071711;28;20040;-77
2022/09/19 02:29:23;;;;;;;4.82;1.70;;;9.80;99.90;;;;;;5072143;28;20484;-77
2022/09/19 02:31:49;;;;;;;4.97;1.52;;;9.80;99.90;;;;;;5091979;28;20024;-77
2022/09/19 02:34:15;;;;;;;3.88;1.40;;;9.80;99.90;;;;;;5092064;28;20103;-77
2022/09/19 02:37:01;;;;;;;4.43;1.60;;;9.60;99.90;;;;;;5074201;28;20146;-77
2022/09/19 02:39:29;;;;;;;3.58;1.30;;;9.60;99.90;;;;;;5091799;28;20040;-77
2022/09/19 02:42:06;;;;;;;2.85;1.25;;;9.70;99.90;;;;;;5094245;28;20047;-77
2022/09/19 02:44:57;;;;;;;1.88;1.40;;;9.50;99.90;;;;;;5095926;28;20480;-77
2022/09/19 02:47:55;;;;;;;2.97;1.63;;;9.60;99.90;;;;;;5096230;28;20032;-77
2022/09/19 02:50:59;;;;;;;3.20;1.73;;;9.40;99.90;;;;;;5095999;28;20040;-77
2022/09/19 02:53:29;;;;;;;2.70;1.40;;;9.40;99.90;;;;;;5083540;28;20040;-77
2022/09/19 02:56:00;;;;;;;3.90;1.40;;;9.50;99.90;;;;;;5095717;28;20058;-77
2022/09/19 02:58:30;;;;;;;3.38;1.45;;;9.70;99.90;;;;;;5095782;28;20024;-77
2022/09/19 03:01:05;;;;;;;4.05;1.40;;;9.30;99.90;;;;;;5095714;28;20101;-77
2022/09/19 03:06:35;;;;;;;3.10;1.50;;;9.50;99.90;;;;;;5096164;28;20027;-76
2022/09/19 03:09:03;;;;;;;3.55;1.33;;;9.50;99.90;;;;;;5095222;28;20020;-77
2022/09/19 03:11:32;;;;;;;3.40;1.50;;;9.60;99.90;;;;;;5095748;28;20032;-77
2022/09/19 03:13:59;;;;;;;4.45;1.73;;;9.50;99.90;;;;;;5095619;28;20024;-77
2022/09/19 03:16:35;;;;;;;2.10;1.55;;;9.60;99.90;;;;;;5095974;28;20047;-76
2022/09/19 03:19:06;;;;;;;2.63;1.55;;;9.50;99.90;;;;;;5095729;28;20020;-77
2022/09/19 03:21:32;;;;;;;3.33;1.50;;;9.40;99.90;;;;;;5095446;28;20119;-78
2022/09/19 03:23:58;;;;;;;1.50;1.30;;;9.60;99.90;;;;;;5095049;28;20035;-76
2022/09/19 03:26:31;;;;;;;2.92;1.70;;;9.50;99.90;;;;;;5095484;28;20024;-76
2022/09/19 03:29:00;;;;;;;2.03;1.35;;;9.50;99.90;;;;;;5095633;28;20028;-77
2022/09/19 03:31:26;;;;;;;2.85;1.45;;;9.40;99.90;;;;;;5095383;28;20045;-77
2022/09/19 03:33:54;;;;;;;3.80;1.55;;;9.40;99.90;;;;;;5094955;28;20081;-77
2022/09/19 03:36:22;;;;;;;2.20;1.70;;;9.60;99.90;;;;;;5095423;28;20027;-77
2022/09/19 03:38:47;;;;;;;2.58;1.70;;;9.50;99.90;;;;;;5094596;28;20396;-77
2022/09/19 03:41:18;;;;;;;3.20;1.40;;;9.30;99.90;;;;;;5094858;28;20039;-77
2022/09/19 03:43:44;;;;;;;3.55;1.40;;;9.30;99.90;;;;;;5094971;28;20020;-77
2022/09/19 03:46:12;;;;;;;2.05;1.50;;;9.20;99.90;;;;;;5076878;28;20032;-76
2022/09/19 03:48:39;;;;;;;3.35;1.45;;;9.20;99.90;;;;;;5094956;28;20042;-77
2022/09/19 03:51:06;;;;;;;3.35;1.40;;;9.10;99.90;;;;;;5095098;28;20027;-77
2022/09/19 03:53:32;;;;;;;4.18;1.40;;;9.30;99.90;;;;;;5094220;28;20032;-78
2022/09/19 03:55:58;;;;;;;4.55;1.40;;;9.60;99.90;;;;;;5094942;28;20024;-77
2022/09/19 03:58:24;;;;;;;3.92;1.50;;;9.40;99.90;;;;;;5094576;28;20130;-77
2022/09/19 04:00:50;;;;;;;2.05;1.38;;;9.20;99.90;;;;;;5076334;28;20036;-77
2022/09/19 04:03:18;;;;;;;3.45;1.70;;;9.20;99.90;;;;;;5094697;28;20035;-77
2022/09/19 04:05:44;;;;;;;2.40;1.40;;;9.20;99.90;;;;;;5094491;28;20107;-77
2022/09/19 04:08:11;;;;;;;4.18;1.60;;;9.40;99.90;;;;;;5094707;28;20103;-77
2022/09/19 04:10:36;;;;;;;2.75;1.55;;;9.10;99.90;;;;;;5111519;28;20035;-77
2022/09/19 04:13:02;;;;;;;2.10;1.50;;;9.30;99.90;;;;;;5114822;28;20046;-77
2022/09/19 04:15:28;;;;;;;1.58;1.48;;;9.10;99.90;;;;;;5115173;28;20027;-77
2022/09/19 04:17:53;;;;;;;4.45;1.70;;;9.20;99.90;;;;;;5115014;28;20491;-77
2022/09/19 04:20:19;;;;;;;3.65;1.50;;;9.20;99.90;;;;;;5096236;28;20023;-77
2022/09/19 04:22:44;;;;;;;4.15;1.63;;;9.10;99.90;;;;;;5114233;28;20134;-77
2022/09/19 04:25:14;;;;;;;3.17;1.55;;;9.10;99.90;;;;;;5114582;28;20377;-76
2022/09/19 04:27:40;;;;;;;5.80;1.80;;;9.20;99.90;;;;;;5114717;28;20121;-77
2022/09/19 04:30:06;;;;;;;2.95;1.50;;;9.20;99.90;;;;;;5107905;28;20128;-77
2022/09/19 04:32:32;;;;;;;1.77;1.50;;;9.30;99.90;;;;;;5093722;28;20036;-78
2022/09/19 04:34:59;;;;;;;4.40;1.70;;;9.40;99.90;;;;;;5094082;28;20039;-76
2022/09/19 04:37:25;;;;;;;3.78;1.80;;;9.20;99.90;;;;;;5094010;28;20016;-78
2022/09/19 04:39:51;;;;;;;4.05;1.52;;;9.40;99.90;;;;;;5094170;28;20047;-79
2022/09/19 04:42:17;;;;;;;4.18;1.50;;;9.00;99.90;;;;;;5093709;28;20040;-79
2022/09/19 04:44:43;;;;;;;3.20;1.70;;;9.40;99.90;;;;;;5094187;28;20024;-78
2022/09/19 04:47:10;;;;;;;2.72;1.73;;;9.10;99.90;;;;;;5093861;28;20024;-78
2022/09/19 04:49:39;;;;;;;2.00;1.60;;;9.40;99.90;;;;;;5093646;28;20048;-77
2022/09/19 04:52:14;;;;;;;3.22;1.70;;;9.00;99.90;;;;;;5093566;28;20027;-79
2022/09/19 04:54:41;;;;;;;5.95;1.60;;;9.00;99.90;;;;;;5094114;28;20039;-78
2022/09/19 04:57:07;;;;;;;5.95;1.67;;;9.00;99.90;;;;;;5093393;28;20024;-77
2022/09/19 04:59:35;;;;;;;5.88;1.90;;;8.90;99.90;;;;;;5093527;28;20055;-77
2022/09/19 05:02:02;;;;;;;3.00;1.60;;;8.80;99.90;;;;;;5093508;28;20036;-77
2022/09/19 05:04:28;;;;;;;2.67;1.67;;;8.80;99.90;;;;;;5092361;28;20110;-77
2022/09/19 05:06:54;;;;;;;1.73;1.52;;;9.00;99.90;;;;;;5093552;28;20024;-78
2022/09/19 05:09:22;;;;;;;3.55;1.73;;;9.20;99.90;;;;;;5093100;28;20107;-77
2022/09/19 05:11:49;;;;;;;3.05;1.70;;;9.20;99.90;;;;;;5093333;28;20036;-77
2022/09/19 05:14:15;;;;;;;2.17;1.42;;;9.00;99.90;;;;;;5093295;28;20024;-77
2022/09/19 05:16:41;;;;;;;2.80;1.60;;;9.10;99.90;;;;;;5093434;28;20024;-77
2022/09/19 05:19:07;;;;;;;2.58;1.60;;;9.00;99.90;;;;;;5092495;28;20500;-77
2022/09/19 05:21:33;;;;;;;3.40;1.80;;;9.00;99.90;;;;;;5092570;28;20043;-77
2022/09/19 05:24:00;;;;;;;6.13;1.90;;;9.10;99.90;;;;;;5093029;28;20023;-77
2022/09/19 05:26:26;;;;;;;3.13;1.50;;;9.10;99.90;;;;;;5093307;28;20035;-77
2022/09/19 05:28:52;;;;;;;4.32;1.85;;;9.20;99.90;;;;;;5092759;28;20492;-77
2022/09/19 05:31:19;;;;;;;3.60;2.28;;;9.00;99.90;;;;;;5092660;28;20035;-77
2022/09/19 05:33:45;;;;;;;5.85;1.88;;;9.00;99.90;;;;;;5092143;28;20039;-77
2022/09/19 05:36:12;;;;;;;3.35;1.90;;;9.10;99.90;;;;;;5092525;28;20506;-77
2022/09/19 05:38:39;;;;;;;8.73;2.10;;;9.20;99.90;;;;;;5092656;28;20077;-77
2022/09/19 05:41:05;;;;;;;3.97;2.03;;;9.00;99.90;;;;;;5092625;28;20032;-80
2022/09/19 05:43:31;;;;;;;5.57;2.30;;;9.10;99.90;;;;;;5092775;28;20447;-77
2022/09/19 05:45:57;;;;;;;3.10;1.75;;;9.10;99.90;;;;;;5092792;28;20034;-77
2022/09/19 05:48:24;;;;;;;4.18;2.58;;;9.10;99.90;;;;;;5092510;28;20024;-77
2022/09/19 05:50:51;;;;;;;4.40;2.38;;;9.20;99.90;;;;;;5093318;28;20457;-77
2022/09/19 05:56:04;;;;;;;5.45;1.98;;;9.30;99.90;;;;;;5093054;28;20510;-76
2022/09/19 05:58:30;;;;;;;5.40;2.35;;;9.20;99.90;;;;;;5092492;28;20050;-77
2022/09/19 06:00:56;;;;;;;8.73;2.20;;;9.20;99.90;;;;;;5092207;28;20032;-77
2022/09/19 06:03:22;;;;;;;7.70;2.72;;;9.30;99.90;;;;;;5092116;28;20118;-77
2022/09/19 06:05:51;;;;;;;5.28;2.22;;;9.30;99.90;;;;;;5092264;28;20107;-77
2022/09/19 06:08:22;;;;;;;7.18;2.25;;;9.30;99.90;;;;;;5092164;28;20032;-77
2022/09/19 06:10:49;;;;;;;4.57;2.42;;;9.40;99.90;;;;;;5091998;28;20024;-77
2022/09/19 06:13:22;;;;;;;5.13;2.28;;;9.50;99.90;;;;;;5092642;28;20032;-76
2022/09/19 06:15:49;;;;;;;6.50;2.03;;;9.50;99.90;;;;;;5091968;28;20035;-77
2022/09/19 06:18:15;;;;;;;5.97;2.15;;;9.50;99.90;;;;;;5091825;28;20016;-77
2022/09/19 06:20:42;;;;;;;5.57;2.22;;;9.50;99.90;;;;;;5073795;28;20400;-77
2022/09/19 06:23:10;;;;;;;4.75;2.40;;;9.70;99.90;;;;;;5091513;28;20020;-75
2022/09/19 06:25:37;;;;;;;8.48;2.60;;;9.90;99.90;;;;;;5091287;28;20039;-76
2022/09/19 06:28:10;;;;;;;7.47;2.42;;;9.80;99.90;;;;;;5091688;28;20028;-77
2022/09/19 06:30:36;;;;;;;5.63;2.53;;;9.90;99.90;;;;;;5090241;28;20035;-76
2022/09/19 06:33:05;;;;;;;5.45;2.22;;;10.10;99.90;;;;;;5090992;28;20051;-75
2022/09/19 06:35:31;;;;;;;5.88;2.35;;;10.20;99.90;;;;;;5090569;28;20016;-76
2022/09/19 06:38:02;;;;;;;8.93;2.80;;;10.10;99.90;;;;;;5091311;28;20085;-76
2022/09/19 06:40:28;;;;;;;4.07;2.42;;;10.40;99.90;;;;;;5090988;28;20452;-76
2022/09/19 06:43:01;;;;;;;5.78;2.47;;;10.50;99.90;;;;;;5092010;28;20418;-76
2022/09/19 06:45:27;;;;;;;4.75;2.60;;;10.40;99.90;;;;;;5092386;28;20039;-78
2022/09/19 06:47:59;;;;;;;7.82;2.90;;;10.50;99.90;;;;;;5091304;28;20030;-77
2022/09/19 06:50:26;;;;;;;6.95;2.92;;;10.70;99.90;;;;;;5091863;28;20016;-80
2022/09/19 06:52:52;;;;;;;5.03;2.50;;;10.90;99.90;;;;;;5092176;28;20477;-78
2022/09/19 06:55:18;;;;;;;8.55;3.05;;;11.00;99.90;;;;;;5082370;28;20024;-78
2022/09/19 06:57:51;;;;;;;4.93;2.70;;;11.00;99.90;;;;;;5091665;28;20024;-80
2022/09/19 07:00:17;;;;;;;5.60;2.40;;;11.00;99.90;;;;;;5091096;28;20028;-80
2022/09/19 07:02:43;;;;;;;6.28;2.40;;;11.00;99.90;;;;;;5092492;28;20113;-80
2022/09/19 07:05:09;;;;;;;3.72;2.15;;;11.10;99.90;;;;;;5090548;28;20020;-79
2022/09/19 07:07:34;;;;;;;4.22;2.10;;;11.00;99.90;;;;;;5092200;28;20043;-82
2022/09/19 07:10:00;;;;;;;3.58;2.15;;;11.20;99.90;;;;;;5090846;28;20032;-80
2022/09/19 07:12:25;;;;;;;3.20;1.98;;;11.20;99.90;;;;;;5091817;28;20066;-80
2022/09/19 07:14:51;;;;;;;4.20;1.95;;;11.30;99.90;;;;;;5090445;28;20032;-80
2022/09/19 07:17:17;;;;;;;4.95;2.00;;;11.40;99.90;;;;;;5091546;28;20034;-80
2022/09/19 07:19:44;;;;;;;4.25;1.90;;;11.30;99.90;;;;;;5091262;28;20024;-80
2022/09/19 07:22:10;;;;;;;5.10;1.95;;;11.40;99.90;;;;;;5091117;28;20504;-79
2022/09/19 07:24:35;;;;;;;5.88;2.20;;;11.40;99.90;;;;;;5091411;28;20027;-79
2022/09/19 07:27:01;;;;;;;2.83;1.95;;;11.60;99.90;;;;;;5092242;28;20080;-79
2022/09/19 07:29:27;;;;;;;3.47;2.40;;;11.70;99.90;;;;;;5095313;28;20436;-79
2022/09/19 07:31:52;;;;;;;4.57;1.95;;;11.60;99.90;;;;;;5095599;28;20373;-79
2022/09/19 07:34:18;;;;;;;3.83;2.42;;;11.60;99.90;;;;;;5094466;28;20081;-79
2022/09/19 07:36:43;;;;;;;6.07;2.47;;;11.90;99.90;;;;;;5095396;28;20482;-79
2022/09/19 07:39:09;;;;;;;4.25;2.03;;;11.90;99.90;;;;;;5094365;28;20028;-78
2022/09/19 07:41:35;;;;;;;5.53;2.20;;;12.00;99.90;;;;;;5094514;28;20110;-78
2022/09/19 07:44:01;;;;;;;4.47;2.20;;;11.90;99.90;;;;;;5094505;28;20460;-79
2022/09/19 07:46:26;;;;;;;5.70;2.28;;;11.90;99.90;;;;;;5094996;28;20024;-79
2022/09/19 07:48:53;;;;;;;2.55;1.95;;;12.10;99.90;;;;;;5095073;28;20027;-79
2022/09/19 07:51:20;;;;;;;3.90;2.00;;;12.00;99.90;;;;;;5095293;28;20051;-79
2022/09/19 07:53:46;;;;;;;4.78;2.13;;;12.10;99.90;;;;;;5094955;28;20062;-80
2022/09/19 07:56:11;;;;;;;3.30;2.08;;;12.10;99.90;;;;;;5094433;28;20464;-80
2022/09/19 07:58:37;;;;;;;5.28;2.28;;;12.10;99.90;;;;;;5093463;28;20034;-80
2022/09/19 08:01:03;;;;;;;3.70;2.13;;;12.10;99.90;;;;;;5094960;28;20085;-81
2022/09/19 08:03:28;;;;;;;3.50;2.20;;;12.20;99.90;;;;;;5094194;28;20039;-80
2022/09/19 08:05:54;;;;;;;6.05;2.03;;;12.20;99.90;;;;;;5094790;28;20024;-80
2022/09/19 08:08:22;;;;;;;5.72;2.30;;;12.30;99.90;;;;;;5095007;28;20024;-80
2022/09/19 08:10:48;;;;;;;4.45;2.00;;;12.30;99.90;;;;;;5094459;28;20063;-80
2022/09/19 08:13:17;;;;;;;3.95;2.03;;;12.40;99.90;;;;;;5094422;28;20390;-80
2022/09/19 08:15:44;;;;;;;5.53;2.33;;;12.50;99.90;;;;;;5094570;28;20020;-80
2022/09/19 08:18:23;;;;;;;2.67;1.65;;;12.40;99.90;;;;;;5094283;28;20158;-80
2022/09/19 08:20:48;;;;;;;2.80;1.75;;;12.60;99.90;;;;;;5094443;28;20396;-80
2022/09/19 08:23:16;;;;;;;2.92;1.48;;;12.60;99.90;;;;;;5094670;28;20035;-80
2022/09/19 08:25:46;;;;;;;4.20;1.90;;;12.60;99.90;;;;;;5094387;28;20032;-80
2022/09/19 08:28:13;;;;;;;6.00;1.83;;;12.80;99.90;;;;;;5094617;28;20388;-80
2022/09/19 08:30:42;;;;;;;5.25;2.40;;;13.00;99.90;;;;;;5093795;28;20055;-80
2022/09/19 08:33:08;;;;;;;4.03;2.15;;;13.20;99.90;;;;;;5094209;28;20604;-80
2022/09/19 08:35:37;;;;;;;3.83;1.92;;;13.30;99.90;;;;;;5094154;28;20028;-80
2022/09/19 08:38:04;;;;;;;2.90;1.88;;;13.40;99.90;;;;;;5093616;28;20056;-80
2022/09/19 08:40:46;;;;;;;3.47;1.70;;;13.40;99.90;;;;;;5093375;28;20028;-80
2022/09/19 08:43:17;;;;;;;3.33;1.73;;;13.60;99.90;;;;;;5093444;28;20383;-80
2022/09/19 08:46:01;;;;;;;4.72;1.83;;;13.60;99.90;;;;;;5093915;28;20064;-80
2022/09/19 08:48:37;;;;;;;4.03;1.90;;;13.70;99.90;;;;;;5094377;28;20438;-80
2022/09/19 08:51:14;;;;;;;3.92;1.67;;;13.90;99.90;;;;;;5093838;28;20024;-80
2022/09/19 08:53:45;;;;;;;3.80;1.55;;;13.90;99.90;;;;;;5093707;28;20050;-80
2022/09/19 08:56:13;;;;;;;3.55;1.30;;;13.90;99.90;;;;;;5092164;28;20103;-78
2022/09/19 08:58:45;;;;;;;5.28;1.50;;;14.10;99.90;;;;;;5083665;28;20031;-78
2022/09/19 09:01:15;;;;;;;3.28;1.38;;;14.30;99.90;;;;;;5092146;28;20036;-78
2022/09/19 09:04:20;;;;;;;2.33;1.40;;;14.80;99.90;;;;;;5093970;28;20091;-78
2022/09/19 09:06:57;;;;;;;1.80;1.60;;;18.50;99.90;;;;;;5093523;28;20021;-78
2022/09/19 09:09:34;;;;;;;3.60;1.67;;;24.20;99.90;;;;;;5093423;28;20028;-78
2022/09/19 09:12:09;;;;;;;3.13;1.80;;;27.50;99.90;;;;;;5093200;28;20388;-79
2022/09/19 09:15:01;;;;;;;1.83;1.48;;;28.60;99.90;;;;;;5093365;28;20035;-79
2022/09/19 09:17:49;;;;;;;3.58;1.52;;;29.30;99.90;;;;;;5093766;28;20543;-79
2022/09/19 09:20:24;;;;;;;2.97;1.70;;;29.90;99.90;;;;;;4991929;28;20450;-79
2022/09/19 09:23:04;;;;;;;2.20;1.67;;;30.30;99.90;;;;;;4991273;28;20466;-78
2022/09/19 09:25:32;;;;;;;2.35;1.60;;;31.30;99.90;;;;;;4991065;28;20031;-79
2022/09/19 09:28:06;;;;;;;3.55;1.70;;;31.10;99.90;;;;;;4991807;28;20035;-79
2022/09/19 09:30:40;;;;;;;3.33;1.77;;;31.70;99.90;;;;;;4991106;28;20026;-79
2022/09/19 09:33:23;;;;;;;4.63;2.08;;;32.40;99.90;;;;;;4991277;28;20080;-79
2022/09/19 09:36:08;;;;;;;3.53;2.13;;;33.10;99.90;;;;;;4992108;28;20042;-80
2022/09/19 09:38:49;;;;;;;3.03;1.98;;;33.90;99.90;;;;;;4990653;28;20030;-80
2022/09/19 09:44:20;;;;;;;4.72;2.25;;;34.90;99.90;;;;;;4994780;28;20041;-82
2022/09/19 09:46:48;;;;;;;3.25;2.10;;;34.60;99.90;;;;;;4990793;28;20042;-81
2022/09/19 09:49:14;;;;;;;2.47;1.88;;;34.30;99.90;;;;;;4997111;28;20386;-81
2022/09/19 09:52:20;;;;;;;5.38;1.83;;;35.30;99.90;;;;;;5010511;28;20056;-81
2022/09/19 09:58:12;;;;;;;3.45;1.98;;;35.30;99.90;;;;;;4992208;28;20446;-84
2022/09/19 10:03:42;;;;;;;2.60;1.40;;;36.50;99.90;;;;;;5010758;28;20533;-83
2022/09/19 10:06:13;;;;;;;2.10;1.33;;;35.80;99.90;;;;;;5025379;28;20029;-83
2022/09/19 10:08:44;;;;;;;3.95;1.30;;;36.30;99.90;;;;;;5013088;28;20509;-82
2022/09/19 10:11:27;;;;;;;5.53;1.50;;;35.80;99.90;;;;;;5019685;28;20037;-83
2022/09/19 10:14:06;;;;;;;2.22;1.23;;;36.20;99.90;;;;;;5030107;28;20026;-82
2022/09/19 10:16:34;;;;;;;4.07;1.50;;;36.30;99.90;;;;;;5029962;28;20072;-84
2022/09/19 10:19:12;;;;;;;3.92;1.40;;;36.40;99.90;;;;;;5027996;28;20037;-83
2022/09/19 10:21:38;;;;;;;4.65;1.40;;;37.10;99.90;;;;;;5030205;28;20609;-84
2022/09/19 10:24:40;;;;;;;2.15;1.20;;;37.20;99.90;;;;;;5029644;28;20060;-84
2022/09/19 10:27:14;;;;;;;2.08;1.20;;;36.90;99.90;;;;;;5028430;28;20021;-81
2022/09/19 10:30:11;;;;;;;3.20;1.08;;;37.50;99.90;;;;;;5042492;28;20032;-81
2022/09/19 10:32:37;;;;;;;2.30;1.20;;;38.00;99.90;;;;;;5091271;28;20048;-81
2022/09/19 10:35:28;;;;;;;2.45;1.20;;;37.90;99.90;;;;;;5092377;28;20063;-80
2022/09/19 10:38:14;;;;;;;4.00;1.27;;;37.80;99.90;;;;;;5091380;28;20028;-81
2022/09/19 10:40:59;;;;;;;2.15;1.35;;;38.30;99.90;;;;;;5092380;28;20019;-81
2022/09/19 10:43:31;;;;;;;5.43;1.40;;;38.40;99.90;;;;;;5090900;28;20036;-80
2022/09/19 10:46:05;;;;;;;3.97;1.50;;;39.60;99.90;;;;;;5092159;28;20024;-80
2022/09/19 10:48:34;;;;;;;1.80;1.27;;;40.10;99.90;;;;;;5092714;28;20028;-85
2022/09/19 10:51:06;;;;;;;2.20;1.20;;;38.80;99.90;;;;;;5092336;28;20422;-83
2022/09/19 10:53:33;;;;;;;1.20;1.02;;;39.40;99.90;;;;;;5090413;28;20396;-80
2022/09/19 10:56:04;;;;;;;2.22;1.10;;;39.70;99.90;;;;;;5093758;28;20462;-81
2022/09/19 10:58:35;;;;;;;2.13;1.10;;;40.50;99.90;;;;;;5092556;28;20365;-80
2022/09/19 11:01:03;;;;;;;1.15;0.95;;;39.20;99.90;;;;;;5090846;28;20024;-79
2022/09/19 11:03:35;;;;;;;2.20;1.30;;;40.50;99.90;;;;;;5094722;28;20036;-79
2022/09/19 11:06:16;;;;;;;2.28;1.20;;;40.80;99.90;;;;;;5096169;28;20026;-79
2022/09/19 11:08:52;;;;;;;2.00;1.67;;;41.10;99.90;;;;;;5095567;28;20028;-78
2022/09/19 11:11:40;;;;;;;2.83;1.55;;;39.60;99.90;;;;;;5095281;28;20020;-79
2022/09/19 11:14:16;;;;;;;1.25;1.15;;;38.80;99.90;;;;;;5084366;28;20454;-79
2022/09/19 11:17:31;;;;;;;1.20;0.95;;;39.80;99.90;;;;;;5095611;28;20025;-79
2022/09/19 11:20:14;;;;;;;1.75;1.10;;;40.30;99.90;;;;;;5095796;28;20399;-78
2022/09/19 11:22:53;;;;;;;1.60;0.95;;;40.10;99.90;;;;;;5095169;28;20050;-79
2022/09/19 11:26:08;;;;;;;1.60;1.00;;;39.80;99.90;;;;;;5094917;28;20421;-79
2022/09/19 11:28:46;;;;;;;2.08;0.90;;;40.50;99.90;;;;;;5016568;28;20077;-79
2022/09/19 11:31:12;;;;;;;1.52;1.00;;;38.70;99.90;;;;;;5018155;28;20041;-78
2022/09/19 11:33:53;;;;;;;1.63;0.90;;;39.40;99.90;;;;;;5021792;28;20033;-79
2022/09/19 11:36:30;;;;;;;3.42;1.10;;;38.80;99.90;;;;;;5032309;28;20030;-77
2022/09/19 11:39:05;;;;;;;2.30;0.90;;;39.20;99.90;;;;;;5032968;28;20032;-78
2022/09/19 11:41:51;;;;;;;1.15;0.82;;;40.30;99.90;;;;;;5032843;28;20044;-79
2022/09/19 11:45:01;;;;;;;1.38;0.90;;;39.30;99.90;;;;;;5033183;28;20059;-79
2022/09/19 11:47:56;;;;;;;1.75;0.85;;;38.80;99.90;;;;;;5020306;28;20592;-78
2022/09/19 11:50:43;;;;;;;2.83;0.82;;;39.90;99.90;;;;;;5032642;28;20486;-79
2022/09/19 11:53:12;;;;;;;1.42;1.00;;;39.00;99.90;;;;;;5032605;28;20037;-79
2022/09/19 11:56:05;;;;;;;2.00;0.90;;;37.90;99.90;;;;;;5032468;28;20025;-79
2022/09/19 11:58:48;;;;;;;0.80;0.80;;;38.60;99.90;;;;;;5039754;28;20040;-78
2022/09/19 12:01:36;;;;;;;1.25;0.80;;;38.50;99.90;;;;;;5083095;28;20043;-78
2022/09/19 12:04:34;;;;;;;1.83;0.90;;;39.80;99.90;;;;;;5094188;28;20490;-79
2022/09/19 12:07:16;;;;;;;0.98;0.88;;;37.40;99.90;;;;;;5093875;28;20050;-79
2022/09/19 12:09:51;;;;;;;1.23;0.90;;;37.40;99.90;;;;;;5094005;28;20024;-79
2022/09/19 12:12:21;;;;;;;2.10;0.88;;;36.70;99.90;;;;;;5094158;28;20024;-79
2022/09/19 12:14:52;;;;;;;1.73;1.00;;;36.50;99.90;;;;;;5094665;28;20116;-79
2022/09/19 12:17:25;;;;;;;1.75;0.70;;;38.10;99.90;;;;;;5095012;28;20459;-79
2022/09/19 12:20:13;;;;;;;2.53;1.10;;;38.20;99.90;;;;;;5094281;28;20028;-79
2022/09/19 12:22:47;;;;;;;1.17;0.70;;;39.30;99.70;;;;;;5094552;28;20064;-79
2022/09/19 12:25:20;;;;;;;1.15;0.70;;;39.40;99.40;;;;;;5094432;28;20024;-79
2022/09/19 12:28:10;;;;;;;2.70;0.90;;;38.60;99.90;;;;;;5094404;28;20024;-79
2022/09/19 12:30:44;;;;;;;1.85;0.98;;;39.40;99.50;;;;;;5094208;28;20048;-79
2022/09/19 12:33:34;;;;;;;2.30;0.82;;;39.60;98.40;;;;;;5093919;28;20052;-79
2022/09/19 12:36:17;;;;;;;3.60;1.00;;;39.30;99.40;;;;;;5093595;28;20024;-79
2022/09/19 12:38:49;;;;;;;3.20;0.93;;;39.50;98.80;;;;;;5094446;28;20046;-80
2022/09/19 12:41:18;;;;;;;1.48;0.90;;;38.20;99.90;;;;;;5093966;28;20033;-79
2022/09/19 12:44:13;;;;;;;2.05;1.00;;;37.20;99.30;;;;;;5094149;28;20472;-79
2022/09/19 12:46:50;;;;;;;1.38;0.88;;;38.90;98.90;;;;;;5093735;28;20388;-79
2022/09/19 12:49:35;;;;;;;1.80;0.80;;;38.60;99.20;;;;;;5093604;28;20483;-79
2022/09/19 12:52:30;;;;;;;1.35;0.95;;;37.70;99.60;;;;;;5094140;28;20048;-79
2022/09/19 12:55:18;;;;;;;1.95;0.90;;;37.60;99.90;;;;;;5093642;28;20028;-79
2022/09/19 12:58:00;;;;;;;2.20;0.90;;;36.80;99.90;;;;;;5093696;28;20095;-79
2022/09/19 13:00:26;;;;;;;1.30;0.95;;;36.90;99.90;;;;;;5093604;28;20028;-80
2022/09/19 13:03:21;;;;;;;1.25;0.90;;;34.60;99.90;;;;;;5093573;28;20488;-80
2022/09/19 13:05:52;;;;;;;1.50;0.80;;;35.50;99.90;;;;;;5093256;28;20040;-79
2022/09/19 13:08:34;;;;;;;1.42;0.90;;;35.60;99.90;;;;;;5093903;28;20032;-79
2022/09/19 13:11:25;;;;;;;1.83;0.80;;;35.40;99.90;;;;;;5093392;28;20032;-79
2022/09/19 13:14:13;;;;;;;1.20;0.85;;;34.40;99.90;;;;;;5093534;28;20052;-79
2022/09/19 13:24:43;;;;;;;2.55;1.00;;;35.90;99.90;;;;;;5092601;28;20028;-79
2022/09/19 13:27:09;;;;;;;2.55;1.00;;;35.30;99.90;;;;;;5093243;28;20081;-79
2022/09/19 13:29:35;;;;;;;0.95;0.95;;;35.10;99.90;;;;;;5092998;28;20191;-79
2022/09/19 13:32:25;;;;;;;2.33;1.23;;;34.60;99.90;;;;;;5092755;28;20127;-80
2022/09/19 13:35:07;;;;;;;1.60;1.10;;;33.90;99.90;;;;;;5093245;28;20111;-79
2022/09/19 13:37:33;;;;;;;3.28;1.00;;;33.10;99.90;;;;;;5093065;28;20396;-79
2022/09/19 13:40:38;;;;;;;3.00;1.00;;;33.50;99.90;;;;;;5093411;28;20031;-79
2022/09/19 13:43:30;;;;;;;2.65;0.90;;;33.20;99.90;;;;;;5093299;28;20036;-79
2022/09/19 13:46:10;;;;;;;1.60;0.90;;;33.50;99.90;;;;;;5093009;28;20028;-79
2022/09/19 13:48:58;;;;;;;2.88;1.00;;;33.60;99.90;;;;;;5093152;28;20038;-79